EDDGEDLP

Guest
Details From EDDG - Muenster Osnabrueck
To EDLP - Paderborn Lippstadt
Flight Number -
Tags generated
Created
Modified
Stats Distance 47 nm / 86 km
Max Altitude 3,000 ft / 914 m
Waypoints 3
Social Downloads 6
Likes 0
Share VATSIM

Download

Looking for another format? Having issues loading an existing format? Contact us
Advertisement - Login to hide

Notes

Basic altitude profile: - Ascent Rate: 2500ft/min - Ascent Speed: 250kts - Cruise Altitude: 35000ft - Cruise Speed: 420kts - Descent Rate: 1500ft/min - Descent Speed: 250kts Options: - Use NATs: yes - Use PACOTS: yes - Use low airways: yes - Use high airways: yes

Route

EDDG EXOBA EDLP

ID Type Via Altitude Latitude Longitude Leg Dist Tot Dist Heading (true) Name
O EDDG APT - 0 ft / 0 m 52.13458˚ 7.68467˚ - 0 nm - Muenster Osnabrueck
EXOBA FIX - 3,000 ft / 914 m 51.76722˚ 8.32694˚ 32 nm 32 nm 133° / 133° -
O EDLP APT - 0 ft / 0 m 51.61417˚ 8.61634˚ 14 nm 46 nm 130° / 131° Paderborn Lippstadt

Altitude Profile

Advertisement - Login to hide

EDDG

Details ICAO EDDG (FMO)
Name Muenster Osnabrueck
Region Germany - Civil
Timezone Europe/Berlin (UTC+2.0)
Stats Elevation 159 ft / 48 m (AMSL)
Location 52.134580° 7.684669°
Runways 1
Magnetic Variation 2.130° E

METAR

EDDG 250350Z 11003KT 040V160 CAVOK 17/14 Q1018 NOSIG

Decode

TAF

TAF EDDG 242300Z 2500/2524 09004KT 9999 SCT020 PROB30 TEMPO 2500/2503 4500 SHRA BKN020TCU TEMPO 2511/2515 10009KT PROB30 TEMPO 2516/2518 12015KT TSRA SCT045CB

Decode

Departure Runways

ID Width Length Bearing (true) Bearing (mag) Surface Threshold Offset Overrun Length
07 148 ft / 45 m 7,303 ft / 2,226 m 70.93° 68.80° Asphalt 151 ft / 46 m 0 ft / 0 m
25 148 ft / 45 m 7,303 ft / 2,226 m 250.96° 248.83° Asphalt 292 ft / 89 m 0 ft / 0 m

EDLP

Details ICAO EDLP (PAD)
Name Paderborn Lippstadt
Region Germany - Civil
Timezone Europe/Berlin (UTC+2.0)
Stats Elevation 699 ft / 213 m (AMSL)
Location 51.614166° 8.616336°
Runways 1
Magnetic Variation 2.417° E

METAR

EDLP 250350Z 14003KT CAVOK 15/14 Q1018

Decode

TAF

TAF EDLP 242300Z 2500/2524 11004KT 9999 SCT040 PROB30 TEMPO 2500/2503 4500 SHRA SCT040TCU BECMG 2506/2509 11009KT BECMG 2516/2519 12004KT

Decode

Destination Runways

ID Width Length Bearing (true) Bearing (mag) Surface Threshold Offset Overrun Length
06 148 ft / 45 m 7,136 ft / 2,175 m 57.28° 54.86° Asphalt 0 ft / 0 m 1,066 ft / 325 m
24 148 ft / 45 m 7,136 ft / 2,175 m 237.30° 234.88° Asphalt 0 ft / 0 m 397 ft / 121 m

Approach Navaids

Runway Type Ident Frequency Range Bearing (true) Bearing (mag) Slope Elevation
06 Localiser IPLE 111.70 MHz 18 nm / 33 km 57.13° 54.72° - 674 ft / 205 m (AMSL)
06 Glidescope IPLE 111.70 MHz 10 nm / 19 km 57.29° 54.87° 3.00° 699 ft / 213 m (AMSL)
24 Localiser IPLW 108.55 MHz 18 nm / 33 km 236.80° 234.38° - 699 ft / 213 m (AMSL)
24 Glidescope IPLW 108.55 MHz 10 nm / 19 km 237.29° 234.87° 3.00° 674 ft / 205 m (AMSL)